Quincy, FL

12:19 AM EST en Noviembre 22, 2017 (GMT -0500)
Reston | | Change Station

Alt 230 ft 30.58 °N, 84.44 °W | Updated 3 seconds ago

Muy nublado
Muy nublado
58.5 ° F
Sensación térmica 58.5 ° F
N
0.0
Viento Variable Viento desde Sur
Gusts 0.0 mph

Hoy
Alta -- | Baja -- ° F
--% Posibilidad de precipitaciones
Ayer
Alta -- | Baja -- ° F
Precip. -- pul
Presión 29.96 pul
Visibilidad 3.0 Millas
Nubes Muy nublado 100 ft
Punto de rocío 58 ° F
Humedad 99%
Precipitaciones 0.00 pul
Espesor de la nieve No disponible.
7:10 AM 5:38 PM
Creciente, 12% visible
SPECI KTLH 220513Z AUTO 33003KT 3SM BR BKN001 13/13 A2996 RMK AO2 T01280128
Presión 29.96 pul
Visibilidad 3.0 Millas
Nubes Muy nublado 100 ft
Punto de rocío 58 ° F
Humedad 99%
Precipitaciones 0.00 pul
Espesor de la nieve No disponible.
7:10 AM 5:38 PM
Creciente, 12% visible
SPECI KTLH 220513Z AUTO 33003KT 3SM BR BKN001 13/13 A2996 RMK AO2 T01280128

Get Severe Weather Alerts

Thanks for signing up!

Be on the lookout for a verification email in your inbox.

You'll start receiving the daily forecast at 6 AM.

×

10-Day Weather Forecast

Almanac

Astronomía

Nov. 22, 2017 Salida Puesta
Hora real
Crepúsculo civil
Crepúsculo náutico
Crepúsculo astronómico
Luna
Horas de luz
Horas de luz
Tomorrow will be .
, % of the Moon is Illuminated

Extremos de hoy

Máximos del estado Bajos del estado

Community

WunderPhotos

Category 6

Welcome to Category 6. This is the collective home for Weather Underground's featured writeups by Dr. Jeff Masters (right), Bob Henson (left), Chris Burt, and other regular contributors.

Nearby

Calidad del aire

  Calidad del aire Índice AQ Contaminante
Not available.

Grosos de nieve

Estación Profundido Altura

Actividad de terremotos

Ciudad Distance Mag. Tiempo y dato
Magnitud mínima muestra es 2,5.

Temperaturas de aguas costeras

Lugar Temperatura

Stations

Estaciones meteorológicas cercanas

Ubicación de la estación Temp. Vientos helados Punto de rocío Humedad Viento Precip. Alt Actualizado Tipo
                   

Watches & Warnings

There are currently no watches in effect.